sensor_id;sensor_type;location;lat;lon;timestamp;temperature;humidity
36654;DHT22;22650;49.350;20.898;2023-02-15T00:00:14;2.30;99.90
36654;DHT22;22650;49.350;20.898;2023-02-15T00:02:48;2.30;99.90
36654;DHT22;22650;49.350;20.898;2023-02-15T00:05:21;2.40;99.90
36654;DHT22;22650;49.350;20.898;2023-02-15T00:07:56;2.40;99.90
36654;DHT22;22650;49.350;20.898;2023-02-15T00:10:30;2.40;99.90
36654;DHT22;22650;49.350;20.898;2023-02-15T00:13:03;2.40;99.90
36654;DHT22;22650;49.350;20.898;2023-02-15T00:15:37;2.30;99.90
36654;DHT22;22650;49.350;20.898;2023-02-15T00:18:10;2.30;99.90
36654;DHT22;22650;49.350;20.898;2023-02-15T00:20:44;2.30;99.90
36654;DHT22;22650;49.350;20.898;2023-02-15T00:23:19;2.30;99.90
36654;DHT22;22650;49.350;20.898;2023-02-15T00:25:52;2.40;99.90
36654;DHT22;22650;49.350;20.898;2023-02-15T00:28:35;2.40;99.90
36654;DHT22;22650;49.350;20.898;2023-02-15T00:31:10;2.40;99.90
36654;DHT22;22650;49.350;20.898;2023-02-15T00:33:44;2.30;99.90
36654;DHT22;22650;49.350;20.898;2023-02-15T00:36:18;2.30;99.90
36654;DHT22;22650;49.350;20.898;2023-02-15T00:38:54;2.40;99.90
36654;DHT22;22650;49.350;20.898;2023-02-15T00:41:28;2.30;99.90
36654;DHT22;22650;49.350;20.898;2023-02-15T00:44:02;2.30;99.90
36654;DHT22;22650;49.350;20.898;2023-02-15T00:46:36;2.30;99.90
36654;DHT22;22650;49.350;20.898;2023-02-15T00:49:13;2.30;99.90
36654;DHT22;22650;49.350;20.898;2023-02-15T00:51:47;2.30;99.90
36654;DHT22;22650;49.350;20.898;2023-02-15T00:54:22;2.30;99.90
36654;DHT22;22650;49.350;20.898;2023-02-15T00:56:55;2.30;99.90
36654;DHT22;22650;49.350;20.898;2023-02-15T00:59:29;2.30;99.90
36654;DHT22;22650;49.350;20.898;2023-02-15T01:02:02;2.20;99.90
36654;DHT22;22650;49.350;20.898;2023-02-15T01:04:35;2.20;99.90
36654;DHT22;22650;49.350;20.898;2023-02-15T01:07:09;2.20;99.90
36654;DHT22;22650;49.350;20.898;2023-02-15T01:09:44;2.20;99.90
36654;DHT22;22650;49.350;20.898;2023-02-15T01:12:18;2.30;99.90
36654;DHT22;22650;49.350;20.898;2023-02-15T01:14:52;2.20;99.90
36654;DHT22;22650;49.350;20.898;2023-02-15T01:17:25;2.30;99.90
36654;DHT22;22650;49.350;20.898;2023-02-15T01:20:00;2.30;99.90
36654;DHT22;22650;49.350;20.898;2023-02-15T01:22:33;2.30;99.90
36654;DHT22;22650;49.350;20.898;2023-02-15T01:25:08;2.30;99.90
36654;DHT22;22650;49.350;20.898;2023-02-15T01:27:42;2.30;99.90
36654;DHT22;22650;49.350;20.898;2023-02-15T01:30:17;2.30;99.90
36654;DHT22;22650;49.350;20.898;2023-02-15T01:32:52;2.30;99.90
36654;DHT22;22650;49.350;20.898;2023-02-15T01:35:25;2.40;99.90
36654;DHT22;22650;49.350;20.898;2023-02-15T01:37:59;2.40;99.90
36654;DHT22;22650;49.350;20.898;2023-02-15T01:40:34;2.40;99.90
36654;DHT22;22650;49.350;20.898;2023-02-15T01:43:11;2.30;99.90
36654;DHT22;22650;49.350;20.898;2023-02-15T01:45:46;2.40;99.90
36654;DHT22;22650;49.350;20.898;2023-02-15T01:48:24;2.40;99.90
36654;DHT22;22650;49.350;20.898;2023-02-15T01:51:02;2.30;99.90
36654;DHT22;22650;49.350;20.898;2023-02-15T01:53:38;2.40;99.90
36654;DHT22;22650;49.350;20.898;2023-02-15T01:56:19;2.40;99.90
36654;DHT22;22650;49.350;20.898;2023-02-15T01:58:55;2.40;99.90
36654;DHT22;22650;49.350;20.898;2023-02-15T02:01:30;2.40;99.90
36654;DHT22;22650;49.350;20.898;2023-02-15T02:04:09;2.40;99.90
36654;DHT22;22650;49.350;20.898;2023-02-15T02:06:46;2.30;99.90
36654;DHT22;22650;49.350;20.898;2023-02-15T02:09:21;2.30;99.90
36654;DHT22;22650;49.350;20.898;2023-02-15T02:11:56;2.30;99.90
36654;DHT22;22650;49.350;20.898;2023-02-15T02:14:29;2.30;99.90
36654;DHT22;22650;49.350;20.898;2023-02-15T02:17:09;2.30;99.90
36654;DHT22;22650;49.350;20.898;2023-02-15T02:20:03;2.30;99.90
36654;DHT22;22650;49.350;20.898;2023-02-15T02:23:11;2.30;99.90
36654;DHT22;22650;49.350;20.898;2023-02-15T02:29:14;2.20;99.90
36654;DHT22;22650;49.350;20.898;2023-02-15T02:32:16;2.20;99.90
36654;DHT22;22650;49.350;20.898;2023-02-15T02:34:59;2.20;99.90
36654;DHT22;22650;49.350;20.898;2023-02-15T02:37:41;2.20;99.90
36654;DHT22;22650;49.350;20.898;2023-02-15T02:40:24;2.20;99.90
36654;DHT22;22650;49.350;20.898;2023-02-15T02:43:01;2.20;99.90
36654;DHT22;22650;49.350;20.898;2023-02-15T02:45:40;2.20;99.90
36654;DHT22;22650;49.350;20.898;2023-02-15T02:48:20;2.20;99.90
36654;DHT22;22650;49.350;20.898;2023-02-15T02:50:57;2.20;99.90
36654;DHT22;22650;49.350;20.898;2023-02-15T02:53:31;2.20;99.90
36654;DHT22;22650;49.350;20.898;2023-02-15T02:56:10;2.20;99.90
36654;DHT22;22650;49.350;20.898;2023-02-15T02:58:48;2.20;99.90
36654;DHT22;22650;49.350;20.898;2023-02-15T03:01:28;2.20;99.90
36654;DHT22;22650;49.350;20.898;2023-02-15T03:04:07;2.20;99.90
36654;DHT22;22650;49.350;20.898;2023-02-15T03:06:47;2.20;99.90
36654;DHT22;22650;49.350;20.898;2023-02-15T03:09:26;2.20;99.90
36654;DHT22;22650;49.350;20.898;2023-02-15T03:12:06;2.20;99.90
36654;DHT22;22650;49.350;20.898;2023-02-15T03:14:47;2.20;99.90
36654;DHT22;22650;49.350;20.898;2023-02-15T03:17:23;2.20;99.90
36654;DHT22;22650;49.350;20.898;2023-02-15T03:20:01;2.20;99.90
36654;DHT22;22650;49.350;20.898;2023-02-15T03:22:42;2.20;99.90
36654;DHT22;22650;49.350;20.898;2023-02-15T03:25:21;2.20;99.90
36654;DHT22;22650;49.350;20.898;2023-02-15T03:27:59;2.20;99.90
36654;DHT22;22650;49.350;20.898;2023-02-15T03:30:35;2.20;99.90
36654;DHT22;22650;49.350;20.898;2023-02-15T03:33:09;2.20;99.90
36654;DHT22;22650;49.350;20.898;2023-02-15T03:35:50;2.20;99.90
36654;DHT22;22650;49.350;20.898;2023-02-15T03:38:32;2.20;99.90
36654;DHT22;22650;49.350;20.898;2023-02-15T03:41:07;2.20;99.90
36654;DHT22;22650;49.350;20.898;2023-02-15T03:43:49;2.20;99.90
36654;DHT22;22650;49.350;20.898;2023-02-15T03:46:26;2.20;99.90
36654;DHT22;22650;49.350;20.898;2023-02-15T03:49:05;2.20;99.90
36654;DHT22;22650;49.350;20.898;2023-02-15T03:51:43;2.20;99.90
36654;DHT22;22650;49.350;20.898;2023-02-15T03:54:22;2.20;99.90
36654;DHT22;22650;49.350;20.898;2023-02-15T03:57:18;2.30;99.90
36654;DHT22;22650;49.350;20.898;2023-02-15T04:00:23;2.20;99.90
36654;DHT22;22650;49.350;20.898;2023-02-15T04:03:23;2.30;99.90
36654;DHT22;22650;49.350;20.898;2023-02-15T04:06:01;2.30;99.90
36654;DHT22;22650;49.350;20.898;2023-02-15T04:08:35;2.30;99.90
36654;DHT22;22650;49.350;20.898;2023-02-15T04:11:27;2.20;99.90
36654;DHT22;22650;49.350;20.898;2023-02-15T04:14:01;2.30;99.90
36654;DHT22;22650;49.350;20.898;2023-02-15T04:16:55;2.20;99.90
36654;DHT22;22650;49.350;20.898;2023-02-15T04:19:28;2.20;99.90
36654;DHT22;22650;49.350;20.898;2023-02-15T04:22:19;2.20;99.90
36654;DHT22;22650;49.350;20.898;2023-02-15T04:25:10;2.20;99.90
36654;DHT22;22650;49.350;20.898;2023-02-15T04:27:49;2.20;99.90
36654;DHT22;22650;49.350;20.898;2023-02-15T04:30:24;2.20;99.90
36654;DHT22;22650;49.350;20.898;2023-02-15T04:32:58;2.20;99.90
36654;DHT22;22650;49.350;20.898;2023-02-15T04:35:32;2.20;99.90
36654;DHT22;22650;49.350;20.898;2023-02-15T04:38:05;2.20;99.90
36654;DHT22;22650;49.350;20.898;2023-02-15T04:40:39;2.20;99.90
36654;DHT22;22650;49.350;20.898;2023-02-15T04:43:14;2.20;99.90
36654;DHT22;22650;49.350;20.898;2023-02-15T04:45:48;2.20;99.90
36654;DHT22;22650;49.350;20.898;2023-02-15T04:48:22;2.20;99.90
36654;DHT22;22650;49.350;20.898;2023-02-15T04:50:56;2.20;99.90
36654;DHT22;22650;49.350;20.898;2023-02-15T04:53:30;2.20;99.90
36654;DHT22;22650;49.350;20.898;2023-02-15T04:56:04;2.20;99.90
36654;DHT22;22650;49.350;20.898;2023-02-15T04:58:39;2.20;99.90
36654;DHT22;22650;49.350;20.898;2023-02-15T05:01:13;2.20;99.90
36654;DHT22;22650;49.350;20.898;2023-02-15T05:03:47;2.20;99.90
36654;DHT22;22650;49.350;20.898;2023-02-15T05:06:21;2.20;99.90
36654;DHT22;22650;49.350;20.898;2023-02-15T05:08:54;2.20;99.90
36654;DHT22;22650;49.350;20.898;2023-02-15T05:11:28;2.20;99.90
36654;DHT22;22650;49.350;20.898;2023-02-15T05:14:03;2.20;99.90
36654;DHT22;22650;49.350;20.898;2023-02-15T05:16:36;2.30;99.90
36654;DHT22;22650;49.350;20.898;2023-02-15T05:19:10;2.30;99.90
36654;DHT22;22650;49.350;20.898;2023-02-15T05:21:43;2.30;99.90
36654;DHT22;22650;49.350;20.898;2023-02-15T05:24:17;2.30;99.90
36654;DHT22;22650;49.350;20.898;2023-02-15T05:27:10;2.30;99.90
36654;DHT22;22650;49.350;20.898;2023-02-15T05:30:04;2.30;99.90
36654;DHT22;22650;49.350;20.898;2023-02-15T05:32:38;2.30;99.90
36654;DHT22;22650;49.350;20.898;2023-02-15T05:35:13;2.30;99.90
36654;DHT22;22650;49.350;20.898;2023-02-15T05:37:47;2.30;99.90
36654;DHT22;22650;49.350;20.898;2023-02-15T05:40:20;2.30;99.90
36654;DHT22;22650;49.350;20.898;2023-02-15T05:42:54;2.30;99.90
36654;DHT22;22650;49.350;20.898;2023-02-15T05:45:30;2.30;99.90
36654;DHT22;22650;49.350;20.898;2023-02-15T05:48:04;2.20;99.90
36654;DHT22;22650;49.350;20.898;2023-02-15T05:50:37;2.20;99.90
36654;DHT22;22650;49.350;20.898;2023-02-15T05:53:11;2.20;99.90
36654;DHT22;22650;49.350;20.898;2023-02-15T05:55:45;2.20;99.90
36654;DHT22;22650;49.350;20.898;2023-02-15T05:58:18;2.20;99.90
36654;DHT22;22650;49.350;20.898;2023-02-15T06:00:53;2.20;99.90
36654;DHT22;22650;49.350;20.898;2023-02-15T06:03:27;2.30;99.90
36654;DHT22;22650;49.350;20.898;2023-02-15T06:06:01;2.30;99.90
36654;DHT22;22650;49.350;20.898;2023-02-15T06:08:37;2.30;99.90
36654;DHT22;22650;49.350;20.898;2023-02-15T06:11:11;2.30;99.90
36654;DHT22;22650;49.350;20.898;2023-02-15T06:13:44;2.30;99.90
36654;DHT22;22650;49.350;20.898;2023-02-15T06:16:19;2.30;99.90
36654;DHT22;22650;49.350;20.898;2023-02-15T06:18:53;2.30;99.90
36654;DHT22;22650;49.350;20.898;2023-02-15T06:21:27;2.30;99.90
36654;DHT22;22650;49.350;20.898;2023-02-15T06:24:00;2.40;99.90
36654;DHT22;22650;49.350;20.898;2023-02-15T06:26:34;2.40;99.90
36654;DHT22;22650;49.350;20.898;2023-02-15T06:29:07;2.40;99.90
36654;DHT22;22650;49.350;20.898;2023-02-15T06:31:43;2.40;99.90
36654;DHT22;22650;49.350;20.898;2023-02-15T06:34:16;2.40;99.90
36654;DHT22;22650;49.350;20.898;2023-02-15T06:36:50;2.40;99.90
36654;DHT22;22650;49.350;20.898;2023-02-15T06:39:23;2.40;99.90
36654;DHT22;22650;49.350;20.898;2023-02-15T06:41:57;2.40;99.90
36654;DHT22;22650;49.350;20.898;2023-02-15T06:44:31;2.40;99.90
36654;DHT22;22650;49.350;20.898;2023-02-15T06:47:06;2.40;99.90
36654;DHT22;22650;49.350;20.898;2023-02-15T06:49:40;2.40;99.90
36654;DHT22;22650;49.350;20.898;2023-02-15T06:52:14;2.40;99.90
36654;DHT22;22650;49.350;20.898;2023-02-15T06:54:50;2.40;99.90
36654;DHT22;22650;49.350;20.898;2023-02-15T06:57:24;2.40;99.90
36654;DHT22;22650;49.350;20.898;2023-02-15T06:59:58;2.50;99.90
36654;DHT22;22650;49.350;20.898;2023-02-15T07:02:33;2.40;99.90
36654;DHT22;22650;49.350;20.898;2023-02-15T07:05:07;2.50;99.90
36654;DHT22;22650;49.350;20.898;2023-02-15T07:07:41;2.50;99.90
36654;DHT22;22650;49.350;20.898;2023-02-15T07:10:15;2.50;99.90
36654;DHT22;22650;49.350;20.898;2023-02-15T07:12:48;2.50;99.90
36654;DHT22;22650;49.350;20.898;2023-02-15T07:15:21;2.60;99.90
36654;DHT22;22650;49.350;20.898;2023-02-15T07:17:57;2.60;99.90
36654;DHT22;22650;49.350;20.898;2023-02-15T07:20:31;2.60;99.90
36654;DHT22;22650;49.350;20.898;2023-02-15T07:23:08;2.60;99.90
36654;DHT22;22650;49.350;20.898;2023-02-15T07:25:42;2.60;99.90
36654;DHT22;22650;49.350;20.898;2023-02-15T07:28:15;2.70;99.90
36654;DHT22;22650;49.350;20.898;2023-02-15T07:30:49;2.70;99.90
36654;DHT22;22650;49.350;20.898;2023-02-15T07:33:24;2.70;99.90
36654;DHT22;22650;49.350;20.898;2023-02-15T07:36:00;2.70;99.90
36654;DHT22;22650;49.350;20.898;2023-02-15T07:38:37;2.70;99.90
36654;DHT22;22650;49.350;20.898;2023-02-15T07:41:12;2.80;99.90
36654;DHT22;22650;49.350;20.898;2023-02-15T07:43:46;2.80;99.90
36654;DHT22;22650;49.350;20.898;2023-02-15T07:46:19;2.80;99.90
36654;DHT22;22650;49.350;20.898;2023-02-15T07:48:55;2.80;99.90
36654;DHT22;22650;49.350;20.898;2023-02-15T07:51:28;2.80;99.90
36654;DHT22;22650;49.350;20.898;2023-02-15T07:54:02;2.80;99.90
36654;DHT22;22650;49.350;20.898;2023-02-15T07:56:36;2.90;99.90
36654;DHT22;22650;49.350;20.898;2023-02-15T07:59:09;2.90;99.90
36654;DHT22;22650;49.350;20.898;2023-02-15T08:01:43;2.90;99.90
36654;DHT22;22650;49.350;20.898;2023-02-15T08:04:18;2.90;99.90
36654;DHT22;22650;49.350;20.898;2023-02-15T08:06:53;2.90;99.90
36654;DHT22;22650;49.350;20.898;2023-02-15T08:09:27;2.90;99.90
36654;DHT22;22650;49.350;20.898;2023-02-15T08:12:00;2.90;99.90
36654;DHT22;22650;49.350;20.898;2023-02-15T08:14:34;2.90;99.90
36654;DHT22;22650;49.350;20.898;2023-02-15T08:17:07;3.00;99.90
36654;DHT22;22650;49.350;20.898;2023-02-15T08:19:42;3.00;99.90
36654;DHT22;22650;49.350;20.898;2023-02-15T08:22:16;3.00;99.90
36654;DHT22;22650;49.350;20.898;2023-02-15T08:24:49;3.10;99.90
36654;DHT22;22650;49.350;20.898;2023-02-15T08:27:23;3.10;99.90
36654;DHT22;22650;49.350;20.898;2023-02-15T08:29:58;3.10;99.90
36654;DHT22;22650;49.350;20.898;2023-02-15T08:32:32;3.10;99.90
36654;DHT22;22650;49.350;20.898;2023-02-15T08:35:07;3.10;99.90
36654;DHT22;22650;49.350;20.898;2023-02-15T08:37:41;3.20;99.90
36654;DHT22;22650;49.350;20.898;2023-02-15T08:40:15;3.20;99.90
36654;DHT22;22650;49.350;20.898;2023-02-15T08:42:49;3.40;99.90
36654;DHT22;22650;49.350;20.898;2023-02-15T08:45:22;3.50;99.90
36654;DHT22;22650;49.350;20.898;2023-02-15T08:47:57;3.60;99.90
36654;DHT22;22650;49.350;20.898;2023-02-15T08:50:32;3.70;99.90
36654;DHT22;22650;49.350;20.898;2023-02-15T08:53:06;4.00;99.90
36654;DHT22;22650;49.350;20.898;2023-02-15T08:55:39;4.20;99.90
36654;DHT22;22650;49.350;20.898;2023-02-15T08:58:13;4.50;99.90
36654;DHT22;22650;49.350;20.898;2023-02-15T09:00:46;4.60;99.90
36654;DHT22;22650;49.350;20.898;2023-02-15T09:03:20;4.70;99.90
36654;DHT22;22650;49.350;20.898;2023-02-15T09:05:58;5.00;99.90
36654;DHT22;22650;49.350;20.898;2023-02-15T09:08:32;5.20;99.90
36654;DHT22;22650;49.350;20.898;2023-02-15T09:11:08;5.30;99.90
36654;DHT22;22650;49.350;20.898;2023-02-15T09:13:42;5.50;99.90
36654;DHT22;22650;49.350;20.898;2023-02-15T09:16:16;5.60;99.90
36654;DHT22;22650;49.350;20.898;2023-02-15T09:18:51;5.70;99.90
36654;DHT22;22650;49.350;20.898;2023-02-15T09:21:26;5.70;99.90
36654;DHT22;22650;49.350;20.898;2023-02-15T09:24:01;5.80;99.90
36654;DHT22;22650;49.350;20.898;2023-02-15T09:26:37;5.90;99.90
36654;DHT22;22650;49.350;20.898;2023-02-15T09:29:12;5.80;99.90
36654;DHT22;22650;49.350;20.898;2023-02-15T09:31:47;5.80;99.90
36654;DHT22;22650;49.350;20.898;2023-02-15T09:34:22;5.90;99.90
36654;DHT22;22650;49.350;20.898;2023-02-15T09:36:57;5.90;99.90
36654;DHT22;22650;49.350;20.898;2023-02-15T09:39:31;5.90;99.90
36654;DHT22;22650;49.350;20.898;2023-02-15T09:42:48;5.80;99.90
36654;DHT22;22650;49.350;20.898;2023-02-15T09:45:50;5.90;99.90
36654;DHT22;22650;49.350;20.898;2023-02-15T09:48:39;5.90;99.90
36654;DHT22;22650;49.350;20.898;2023-02-15T09:51:22;6.00;99.90
36654;DHT22;22650;49.350;20.898;2023-02-15T09:54:18;6.00;99.90
36654;DHT22;22650;49.350;20.898;2023-02-15T09:56:53;6.00;99.90
36654;DHT22;22650;49.350;20.898;2023-02-15T09:59:34;6.10;99.90
36654;DHT22;22650;49.350;20.898;2023-02-15T10:02:24;6.20;99.90
36654;DHT22;22650;49.350;20.898;2023-02-15T10:05:10;6.20;99.90
36654;DHT22;22650;49.350;20.898;2023-02-15T10:08:05;6.40;99.90
36654;DHT22;22650;49.350;20.898;2023-02-15T10:10:50;6.50;99.90
36654;DHT22;22650;49.350;20.898;2023-02-15T10:13:36;6.60;99.90
36654;DHT22;22650;49.350;20.898;2023-02-15T10:16:21;6.70;99.90
36654;DHT22;22650;49.350;20.898;2023-02-15T10:19:03;6.60;99.90
36654;DHT22;22650;49.350;20.898;2023-02-15T10:21:48;6.60;99.90
36654;DHT22;22650;49.350;20.898;2023-02-15T10:24:35;6.50;99.90
36654;DHT22;22650;49.350;20.898;2023-02-15T10:27:19;6.50;99.90
36654;DHT22;22650;49.350;20.898;2023-02-15T10:30:02;6.60;99.90
36654;DHT22;22650;49.350;20.898;2023-02-15T10:32:42;6.70;99.90
36654;DHT22;22650;49.350;20.898;2023-02-15T10:35:24;6.80;99.90
36654;DHT22;22650;49.350;20.898;2023-02-15T10:38:15;6.80;99.90
36654;DHT22;22650;49.350;20.898;2023-02-15T10:40:55;6.90;99.90
36654;DHT22;22650;49.350;20.898;2023-02-15T10:43:49;6.90;99.90
36654;DHT22;22650;49.350;20.898;2023-02-15T10:46:46;6.90;99.90
36654;DHT22;22650;49.350;20.898;2023-02-15T10:49:41;6.90;99.90
36654;DHT22;22650;49.350;20.898;2023-02-15T10:52:25;6.90;99.90
36654;DHT22;22650;49.350;20.898;2023-02-15T10:55:10;6.90;99.90
36654;DHT22;22650;49.350;20.898;2023-02-15T10:57:52;6.80;99.90
36654;DHT22;22650;49.350;20.898;2023-02-15T11:00:33;6.70;99.90
36654;DHT22;22650;49.350;20.898;2023-02-15T11:03:34;6.70;99.90
36654;DHT22;22650;49.350;20.898;2023-02-15T11:06:12;6.70;99.90
36654;DHT22;22650;49.350;20.898;2023-02-15T11:08:51;6.70;99.90
36654;DHT22;22650;49.350;20.898;2023-02-15T11:11:29;6.70;99.90
36654;DHT22;22650;49.350;20.898;2023-02-15T11:14:10;6.80;99.90
36654;DHT22;22650;49.350;20.898;2023-02-15T11:16:51;6.90;99.90
36654;DHT22;22650;49.350;20.898;2023-02-15T11:19:30;6.90;99.90
36654;DHT22;22650;49.350;20.898;2023-02-15T11:22:06;7.00;99.90
36654;DHT22;22650;49.350;20.898;2023-02-15T11:24:42;7.10;99.90
36654;DHT22;22650;49.350;20.898;2023-02-15T11:27:19;7.20;99.90
36654;DHT22;22650;49.350;20.898;2023-02-15T11:29:58;7.30;99.90
36654;DHT22;22650;49.350;20.898;2023-02-15T11:32:37;7.30;99.90
36654;DHT22;22650;49.350;20.898;2023-02-15T11:35:20;7.40;99.90
36654;DHT22;22650;49.350;20.898;2023-02-15T11:38:01;7.60;99.90
36654;DHT22;22650;49.350;20.898;2023-02-15T11:40:43;7.70;99.90
36654;DHT22;22650;49.350;20.898;2023-02-15T11:43:21;7.70;99.90
36654;DHT22;22650;49.350;20.898;2023-02-15T11:45:57;7.80;99.90
36654;DHT22;22650;49.350;20.898;2023-02-15T11:48:33;7.80;99.90
36654;DHT22;22650;49.350;20.898;2023-02-15T11:51:12;8.00;99.90
36654;DHT22;22650;49.350;20.898;2023-02-15T11:53:49;8.10;99.90
36654;DHT22;22650;49.350;20.898;2023-02-15T11:56:25;8.20;99.90
36654;DHT22;22650;49.350;20.898;2023-02-15T11:59:08;8.40;98.10
36654;DHT22;22650;49.350;20.898;2023-02-15T12:01:47;8.50;96.80
36654;DHT22;22650;49.350;20.898;2023-02-15T12:04:24;8.70;96.30
36654;DHT22;22650;49.350;20.898;2023-02-15T12:07:05;8.80;94.50
36654;DHT22;22650;49.350;20.898;2023-02-15T12:09:48;9.00;94.50
36654;DHT22;22650;49.350;20.898;2023-02-15T12:12:27;9.20;95.10
36654;DHT22;22650;49.350;20.898;2023-02-15T12:15:05;9.40;94.30
36654;DHT22;22650;49.350;20.898;2023-02-15T12:17:50;9.60;93.60
36654;DHT22;22650;49.350;20.898;2023-02-15T12:20:31;9.70;92.30
36654;DHT22;22650;49.350;20.898;2023-02-15T12:23:12;9.80;91.70
36654;DHT22;22650;49.350;20.898;2023-02-15T12:25:52;10.00;91.50
36654;DHT22;22650;49.350;20.898;2023-02-15T12:28:55;10.10;91.20
36654;DHT22;22650;49.350;20.898;2023-02-15T13:24:23;11.50;80.70
36654;DHT22;22650;49.350;20.898;2023-02-15T13:43:00;11.50;82.00
36654;DHT22;22650;49.350;20.898;2023-02-15T13:45:42;11.40;81.80
36654;DHT22;22650;49.350;20.898;2023-02-15T13:48:36;11.50;83.10
36654;DHT22;22650;49.350;20.898;2023-02-15T13:51:31;11.50;82.30
36654;DHT22;22650;49.350;20.898;2023-02-15T13:54:44;11.60;82.10
36654;DHT22;22650;49.350;20.898;2023-02-15T13:57:36;11.60;82.30
36654;DHT22;22650;49.350;20.898;2023-02-15T14:00:21;11.60;81.60
36654;DHT22;22650;49.350;20.898;2023-02-15T14:03:16;11.70;81.90
36654;DHT22;22650;49.350;20.898;2023-02-15T14:06:05;11.60;80.80
36654;DHT22;22650;49.350;20.898;2023-02-15T14:09:03;11.60;81.40
36654;DHT22;22650;49.350;20.898;2023-02-15T14:11:48;11.50;80.70
36654;DHT22;22650;49.350;20.898;2023-02-15T14:14:48;11.40;80.80
36654;DHT22;22650;49.350;20.898;2023-02-15T14:17:41;11.30;81.50
36654;DHT22;22650;49.350;20.898;2023-02-15T14:20:22;11.20;83.30
36654;DHT22;22650;49.350;20.898;2023-02-15T14:23:04;11.30;83.60
36654;DHT22;22650;49.350;20.898;2023-02-15T14:25:47;11.30;82.10
36654;DHT22;22650;49.350;20.898;2023-02-15T14:28:27;11.20;82.10
36654;DHT22;22650;49.350;20.898;2023-02-15T14:31:03;11.10;83.70
36654;DHT22;22650;49.350;20.898;2023-02-15T14:33:43;11.00;84.60
36654;DHT22;22650;49.350;20.898;2023-02-15T14:36:23;10.80;85.50
36654;DHT22;22650;49.350;20.898;2023-02-15T14:39:08;10.80;87.20
36654;DHT22;22650;49.350;20.898;2023-02-15T14:42:07;10.70;88.30
36654;DHT22;22650;49.350;20.898;2023-02-15T14:44:45;10.60;88.90
36654;DHT22;22650;49.350;20.898;2023-02-15T14:52:41;10.20;89.90
36654;DHT22;22650;49.350;20.898;2023-02-15T14:56:15;9.90;91.30
36654;DHT22;22650;49.350;20.898;2023-02-15T14:59:16;9.60;91.90
36654;DHT22;22650;49.350;20.898;2023-02-15T15:01:55;9.40;92.90
36654;DHT22;22650;49.350;20.898;2023-02-15T15:04:32;9.30;93.50
36654;DHT22;22650;49.350;20.898;2023-02-15T15:07:17;9.10;94.10
36654;DHT22;22650;49.350;20.898;2023-02-15T15:10:02;8.90;94.20
36654;DHT22;22650;49.350;20.898;2023-02-15T15:12:51;8.80;95.30
36654;DHT22;22650;49.350;20.898;2023-02-15T15:15:44;8.70;96.20
36654;DHT22;22650;49.350;20.898;2023-02-15T15:18:43;8.60;97.10
36654;DHT22;22650;49.350;20.898;2023-02-15T15:24:50;8.40;98.60
36654;DHT22;22650;49.350;20.898;2023-02-15T15:27:53;8.30;99.50
36654;DHT22;22650;49.350;20.898;2023-02-15T15:31:02;8.10;99.50
36654;DHT22;22650;49.350;20.898;2023-02-15T15:37:25;7.60;99.90
36654;DHT22;22650;49.350;20.898;2023-02-15T15:40:46;7.40;99.90
36654;DHT22;22650;49.350;20.898;2023-02-15T15:46:49;6.80;99.90
36654;DHT22;22650;49.350;20.898;2023-02-15T15:49:30;6.60;99.90
36654;DHT22;22650;49.350;20.898;2023-02-15T15:52:12;6.40;99.90
36654;DHT22;22650;49.350;20.898;2023-02-15T15:54:49;6.20;99.90
36654;DHT22;22650;49.350;20.898;2023-02-15T15:57:28;6.00;99.90
36654;DHT22;22650;49.350;20.898;2023-02-15T16:00:03;5.90;99.90
36654;DHT22;22650;49.350;20.898;2023-02-15T16:02:52;5.70;99.90
36654;DHT22;22650;49.350;20.898;2023-02-15T16:05:35;5.60;99.90
36654;DHT22;22650;49.350;20.898;2023-02-15T16:08:08;5.40;99.90
36654;DHT22;22650;49.350;20.898;2023-02-15T16:10:44;5.20;99.90
36654;DHT22;22650;49.350;20.898;2023-02-15T16:13:19;5.00;99.90
36654;DHT22;22650;49.350;20.898;2023-02-15T16:15:54;4.80;99.90
36654;DHT22;22650;49.350;20.898;2023-02-15T16:18:30;4.70;99.90
36654;DHT22;22650;49.350;20.898;2023-02-15T16:21:05;4.60;99.90
36654;DHT22;22650;49.350;20.898;2023-02-15T16:26:58;4.40;99.90
36654;DHT22;22650;49.350;20.898;2023-02-15T16:29:36;4.30;99.90
36654;DHT22;22650;49.350;20.898;2023-02-15T16:32:18;4.20;99.90
36654;DHT22;22650;49.350;20.898;2023-02-15T16:34:55;4.10;99.90
36654;DHT22;22650;49.350;20.898;2023-02-15T16:37:33;3.90;99.90
36654;DHT22;22650;49.350;20.898;2023-02-15T16:40:36;3.90;99.90
36654;DHT22;22650;49.350;20.898;2023-02-15T16:43:13;3.70;99.90
36654;DHT22;22650;49.350;20.898;2023-02-15T16:45:48;3.60;99.90
36654;DHT22;22650;49.350;20.898;2023-02-15T16:48:24;3.40;99.90
36654;DHT22;22650;49.350;20.898;2023-02-15T16:51:01;3.30;99.90
36654;DHT22;22650;49.350;20.898;2023-02-15T16:53:37;3.20;99.90
36654;DHT22;22650;49.350;20.898;2023-02-15T16:56:11;3.10;99.90
36654;DHT22;22650;49.350;20.898;2023-02-15T16:58:50;3.10;99.90
36654;DHT22;22650;49.350;20.898;2023-02-15T17:01:27;3.00;99.90
36654;DHT22;22650;49.350;20.898;2023-02-15T17:04:12;2.90;99.90
36654;DHT22;22650;49.350;20.898;2023-02-15T17:06:58;2.80;99.90
36654;DHT22;22650;49.350;20.898;2023-02-15T17:09:49;2.80;99.90
36654;DHT22;22650;49.350;20.898;2023-02-15T17:12:45;2.70;99.90
36654;DHT22;22650;49.350;20.898;2023-02-15T17:15:31;2.70;99.90
36654;DHT22;22650;49.350;20.898;2023-02-15T17:18:08;2.60;99.90
36654;DHT22;22650;49.350;20.898;2023-02-15T17:20:43;2.60;99.90
36654;DHT22;22650;49.350;20.898;2023-02-15T17:23:29;2.50;99.90
36654;DHT22;22650;49.350;20.898;2023-02-15T17:26:11;2.50;99.90
36654;DHT22;22650;49.350;20.898;2023-02-15T17:28:49;2.40;99.90
36654;DHT22;22650;49.350;20.898;2023-02-15T17:31:25;2.30;99.90
36654;DHT22;22650;49.350;20.898;2023-02-15T17:34:02;2.30;99.90
36654;DHT22;22650;49.350;20.898;2023-02-15T17:36:57;2.20;99.90
36654;DHT22;22650;49.350;20.898;2023-02-15T17:39:32;2.10;99.90
36654;DHT22;22650;49.350;20.898;2023-02-15T17:42:06;2.10;99.90
36654;DHT22;22650;49.350;20.898;2023-02-15T17:44:40;2.00;99.90
36654;DHT22;22650;49.350;20.898;2023-02-15T17:47:15;1.90;99.90
36654;DHT22;22650;49.350;20.898;2023-02-15T17:49:50;1.90;99.90
36654;DHT22;22650;49.350;20.898;2023-02-15T17:52:27;1.80;99.90
36654;DHT22;22650;49.350;20.898;2023-02-15T17:55:13;1.70;99.90
36654;DHT22;22650;49.350;20.898;2023-02-15T17:58:05;1.70;99.90
36654;DHT22;22650;49.350;20.898;2023-02-15T18:00:43;1.60;99.90
36654;DHT22;22650;49.350;20.898;2023-02-15T18:03:40;1.60;99.90
36654;DHT22;22650;49.350;20.898;2023-02-15T18:06:32;1.50;99.90
36654;DHT22;22650;49.350;20.898;2023-02-15T18:09:25;1.50;99.90
36654;DHT22;22650;49.350;20.898;2023-02-15T18:12:20;1.50;99.90
36654;DHT22;22650;49.350;20.898;2023-02-15T18:14:55;1.50;99.90
36654;DHT22;22650;49.350;20.898;2023-02-15T18:17:33;1.40;99.90